sensor_id;sensor_type;location;lat;lon;timestamp;temperature;humidity
5278;DHT22;2662;51.194;6.614;2022-12-07T00:01:51;6.80;99.90
5278;DHT22;2662;51.194;6.614;2022-12-07T00:04:18;6.70;99.90
5278;DHT22;2662;51.194;6.614;2022-12-07T00:06:47;6.70;99.90
5278;DHT22;2662;51.194;6.614;2022-12-07T00:09:17;6.70;99.90
5278;DHT22;2662;51.194;6.614;2022-12-07T00:11:44;6.70;99.90
5278;DHT22;2662;51.194;6.614;2022-12-07T00:14:14;6.60;99.90
5278;DHT22;2662;51.194;6.614;2022-12-07T00:16:41;6.50;99.90
5278;DHT22;2662;51.194;6.614;2022-12-07T00:19:10;6.50;99.90
5278;DHT22;2662;51.194;6.614;2022-12-07T00:21:37;6.40;99.90
5278;DHT22;2662;51.194;6.614;2022-12-07T00:24:05;6.40;99.90
5278;DHT22;2662;51.194;6.614;2022-12-07T00:26:33;6.40;99.90
5278;DHT22;2662;51.194;6.614;2022-12-07T00:29:02;6.50;99.90
5278;DHT22;2662;51.194;6.614;2022-12-07T00:31:32;6.50;99.90
5278;DHT22;2662;51.194;6.614;2022-12-07T00:34:00;6.60;99.90
5278;DHT22;2662;51.194;6.614;2022-12-07T00:36:27;6.60;99.90
5278;DHT22;2662;51.194;6.614;2022-12-07T00:38:54;6.60;99.90
5278;DHT22;2662;51.194;6.614;2022-12-07T00:41:22;6.60;99.90
5278;DHT22;2662;51.194;6.614;2022-12-07T00:43:50;6.60;99.90
5278;DHT22;2662;51.194;6.614;2022-12-07T00:46:18;6.60;99.90
5278;DHT22;2662;51.194;6.614;2022-12-07T00:48:47;6.70;99.90
5278;DHT22;2662;51.194;6.614;2022-12-07T00:51:15;6.70;99.90
5278;DHT22;2662;51.194;6.614;2022-12-07T00:53:43;6.70;99.90
5278;DHT22;2662;51.194;6.614;2022-12-07T00:56:12;6.70;99.90
5278;DHT22;2662;51.194;6.614;2022-12-07T00:58:39;6.80;99.90
5278;DHT22;2662;51.194;6.614;2022-12-07T01:01:08;6.80;99.90
5278;DHT22;2662;51.194;6.614;2022-12-07T01:03:35;6.80;99.90
5278;DHT22;2662;51.194;6.614;2022-12-07T01:06:04;6.80;99.90
5278;DHT22;2662;51.194;6.614;2022-12-07T01:08:32;6.70;99.90
5278;DHT22;2662;51.194;6.614;2022-12-07T01:11:00;6.70;99.90
5278;DHT22;2662;51.194;6.614;2022-12-07T01:13:27;6.70;99.90
5278;DHT22;2662;51.194;6.614;2022-12-07T01:15:57;6.70;99.90
5278;DHT22;2662;51.194;6.614;2022-12-07T01:18:25;6.70;99.90
5278;DHT22;2662;51.194;6.614;2022-12-07T01:21:00;6.60;99.90
5278;DHT22;2662;51.194;6.614;2022-12-07T01:23:28;6.60;99.90
5278;DHT22;2662;51.194;6.614;2022-12-07T01:25:56;6.60;99.90
5278;DHT22;2662;51.194;6.614;2022-12-07T01:28:23;6.60;99.90
5278;DHT22;2662;51.194;6.614;2022-12-07T01:31:00;6.70;99.90
5278;DHT22;2662;51.194;6.614;2022-12-07T01:33:28;6.70;99.90
5278;DHT22;2662;51.194;6.614;2022-12-07T01:36:00;6.70;99.90
5278;DHT22;2662;51.194;6.614;2022-12-07T01:38:29;6.70;99.90
5278;DHT22;2662;51.194;6.614;2022-12-07T01:40:56;6.70;99.90
5278;DHT22;2662;51.194;6.614;2022-12-07T01:43:24;6.70;99.90
5278;DHT22;2662;51.194;6.614;2022-12-07T01:45:52;6.70;99.90
5278;DHT22;2662;51.194;6.614;2022-12-07T01:48:22;6.70;99.90
5278;DHT22;2662;51.194;6.614;2022-12-07T01:50:51;6.70;99.90
5278;DHT22;2662;51.194;6.614;2022-12-07T01:53:20;6.80;99.90
5278;DHT22;2662;51.194;6.614;2022-12-07T01:55:52;6.80;99.90
5278;DHT22;2662;51.194;6.614;2022-12-07T01:58:20;6.80;99.90
5278;DHT22;2662;51.194;6.614;2022-12-07T02:00:47;6.70;99.90
5278;DHT22;2662;51.194;6.614;2022-12-07T02:03:18;6.70;99.90
5278;DHT22;2662;51.194;6.614;2022-12-07T02:05:46;6.70;99.90
5278;DHT22;2662;51.194;6.614;2022-12-07T02:08:14;6.60;99.90
5278;DHT22;2662;51.194;6.614;2022-12-07T02:10:41;6.60;99.90
5278;DHT22;2662;51.194;6.614;2022-12-07T02:13:12;6.50;99.90
5278;DHT22;2662;51.194;6.614;2022-12-07T02:15:48;6.50;99.90
5278;DHT22;2662;51.194;6.614;2022-12-07T02:18:21;6.40;99.90
5278;DHT22;2662;51.194;6.614;2022-12-07T02:20:55;6.50;99.90
5278;DHT22;2662;51.194;6.614;2022-12-07T02:24:00;6.50;99.90
5278;DHT22;2662;51.194;6.614;2022-12-07T02:27:19;6.50;99.90
5278;DHT22;2662;51.194;6.614;2022-12-07T02:29:58;6.50;99.90
5278;DHT22;2662;51.194;6.614;2022-12-07T02:32:28;6.40;99.90
5278;DHT22;2662;51.194;6.614;2022-12-07T02:35:00;6.40;99.90
5278;DHT22;2662;51.194;6.614;2022-12-07T02:37:36;6.50;99.90
5278;DHT22;2662;51.194;6.614;2022-12-07T02:40:09;6.40;99.90
5278;DHT22;2662;51.194;6.614;2022-12-07T02:42:40;6.40;99.90
5278;DHT22;2662;51.194;6.614;2022-12-07T02:45:12;6.30;99.90
5278;DHT22;2662;51.194;6.614;2022-12-07T02:47:41;6.30;99.90
5278;DHT22;2662;51.194;6.614;2022-12-07T02:50:09;6.30;99.90
5278;DHT22;2662;51.194;6.614;2022-12-07T02:52:36;6.30;99.90
5278;DHT22;2662;51.194;6.614;2022-12-07T02:55:04;6.30;99.90
5278;DHT22;2662;51.194;6.614;2022-12-07T02:57:42;6.40;99.90
5278;DHT22;2662;51.194;6.614;2022-12-07T03:00:15;6.40;99.90
5278;DHT22;2662;51.194;6.614;2022-12-07T03:02:50;6.30;99.90
5278;DHT22;2662;51.194;6.614;2022-12-07T03:05:36;6.30;99.90
5278;DHT22;2662;51.194;6.614;2022-12-07T03:08:13;6.30;99.90
5278;DHT22;2662;51.194;6.614;2022-12-07T03:10:49;6.30;99.90
5278;DHT22;2662;51.194;6.614;2022-12-07T03:13:23;6.30;99.90
5278;DHT22;2662;51.194;6.614;2022-12-07T03:15:56;6.30;99.90
5278;DHT22;2662;51.194;6.614;2022-12-07T03:18:27;6.20;99.90
5278;DHT22;2662;51.194;6.614;2022-12-07T03:20:58;6.20;99.90
5278;DHT22;2662;51.194;6.614;2022-12-07T03:23:27;6.20;99.90
5278;DHT22;2662;51.194;6.614;2022-12-07T03:25:57;6.10;99.90
5278;DHT22;2662;51.194;6.614;2022-12-07T03:28:29;6.00;99.90
5278;DHT22;2662;51.194;6.614;2022-12-07T03:31:02;5.90;99.90
5278;DHT22;2662;51.194;6.614;2022-12-07T03:33:35;5.80;99.90
5278;DHT22;2662;51.194;6.614;2022-12-07T03:36:06;5.80;99.90
5278;DHT22;2662;51.194;6.614;2022-12-07T03:38:38;5.80;99.90
5278;DHT22;2662;51.194;6.614;2022-12-07T03:41:09;5.80;99.90
5278;DHT22;2662;51.194;6.614;2022-12-07T03:43:38;5.80;99.90
5278;DHT22;2662;51.194;6.614;2022-12-07T03:46:16;5.80;99.90
5278;DHT22;2662;51.194;6.614;2022-12-07T03:48:49;5.80;99.90
5278;DHT22;2662;51.194;6.614;2022-12-07T03:51:21;5.90;99.90
5278;DHT22;2662;51.194;6.614;2022-12-07T03:53:52;5.90;99.90
5278;DHT22;2662;51.194;6.614;2022-12-07T03:56:21;5.90;99.90
5278;DHT22;2662;51.194;6.614;2022-12-07T03:58:49;5.90;99.90
5278;DHT22;2662;51.194;6.614;2022-12-07T04:01:19;5.90;99.90
5278;DHT22;2662;51.194;6.614;2022-12-07T04:03:45;5.80;99.90
5278;DHT22;2662;51.194;6.614;2022-12-07T04:06:12;5.80;99.90
5278;DHT22;2662;51.194;6.614;2022-12-07T04:08:39;5.70;99.90
5278;DHT22;2662;51.194;6.614;2022-12-07T04:11:05;5.70;99.90
5278;DHT22;2662;51.194;6.614;2022-12-07T04:13:32;5.70;99.90
5278;DHT22;2662;51.194;6.614;2022-12-07T04:16:21;5.60;99.90
5278;DHT22;2662;51.194;6.614;2022-12-07T04:18:47;5.70;99.90
5278;DHT22;2662;51.194;6.614;2022-12-07T04:21:14;5.70;99.90
5278;DHT22;2662;51.194;6.614;2022-12-07T04:23:41;5.70;99.90
5278;DHT22;2662;51.194;6.614;2022-12-07T04:26:07;5.60;99.90
5278;DHT22;2662;51.194;6.614;2022-12-07T04:28:34;5.60;99.90
5278;DHT22;2662;51.194;6.614;2022-12-07T04:31:01;5.60;99.90
5278;DHT22;2662;51.194;6.614;2022-12-07T04:33:29;5.60;99.90
5278;DHT22;2662;51.194;6.614;2022-12-07T04:35:55;5.60;99.90
5278;DHT22;2662;51.194;6.614;2022-12-07T04:38:22;5.60;99.90
5278;DHT22;2662;51.194;6.614;2022-12-07T04:40:49;5.70;99.90
5278;DHT22;2662;51.194;6.614;2022-12-07T04:43:15;5.70;99.90
5278;DHT22;2662;51.194;6.614;2022-12-07T04:45:45;5.70;99.90
5278;DHT22;2662;51.194;6.614;2022-12-07T04:48:12;5.70;99.90
5278;DHT22;2662;51.194;6.614;2022-12-07T04:50:40;5.80;99.90
5278;DHT22;2662;51.194;6.614;2022-12-07T04:53:07;5.80;99.90
5278;DHT22;2662;51.194;6.614;2022-12-07T04:55:34;5.80;99.90
5278;DHT22;2662;51.194;6.614;2022-12-07T04:58:00;5.80;99.90
5278;DHT22;2662;51.194;6.614;2022-12-07T05:00:27;5.80;99.90
5278;DHT22;2662;51.194;6.614;2022-12-07T05:02:54;5.80;99.90
5278;DHT22;2662;51.194;6.614;2022-12-07T05:05:20;5.70;99.90
5278;DHT22;2662;51.194;6.614;2022-12-07T05:07:48;5.70;99.90
5278;DHT22;2662;51.194;6.614;2022-12-07T05:10:15;5.70;99.90
5278;DHT22;2662;51.194;6.614;2022-12-07T05:12:42;5.80;99.90
5278;DHT22;2662;51.194;6.614;2022-12-07T05:15:09;5.80;99.90
5278;DHT22;2662;51.194;6.614;2022-12-07T05:17:36;5.90;99.90
5278;DHT22;2662;51.194;6.614;2022-12-07T05:20:04;5.80;99.90
5278;DHT22;2662;51.194;6.614;2022-12-07T05:22:31;5.80;99.90
5278;DHT22;2662;51.194;6.614;2022-12-07T05:24:59;5.80;99.90
5278;DHT22;2662;51.194;6.614;2022-12-07T05:27:25;5.80;99.90
5278;DHT22;2662;51.194;6.614;2022-12-07T05:29:52;5.80;99.90
5278;DHT22;2662;51.194;6.614;2022-12-07T05:32:19;5.80;99.90
5278;DHT22;2662;51.194;6.614;2022-12-07T05:34:45;5.80;99.90
5278;DHT22;2662;51.194;6.614;2022-12-07T05:37:12;5.80;99.90
5278;DHT22;2662;51.194;6.614;2022-12-07T05:39:39;5.80;99.90
5278;DHT22;2662;51.194;6.614;2022-12-07T05:42:10;5.80;99.90
5278;DHT22;2662;51.194;6.614;2022-12-07T05:44:41;5.80;99.90
5278;DHT22;2662;51.194;6.614;2022-12-07T05:47:08;5.90;99.90
5278;DHT22;2662;51.194;6.614;2022-12-07T05:49:35;5.90;99.90
5278;DHT22;2662;51.194;6.614;2022-12-07T05:52:02;5.90;99.90
5278;DHT22;2662;51.194;6.614;2022-12-07T05:54:29;6.00;99.90
5278;DHT22;2662;51.194;6.614;2022-12-07T05:56:56;6.00;99.90
5278;DHT22;2662;51.194;6.614;2022-12-07T05:59:24;6.00;99.90
5278;DHT22;2662;51.194;6.614;2022-12-07T06:01:50;6.00;99.90
5278;DHT22;2662;51.194;6.614;2022-12-07T06:04:18;6.00;99.90
5278;DHT22;2662;51.194;6.614;2022-12-07T06:06:45;6.00;99.90
5278;DHT22;2662;51.194;6.614;2022-12-07T06:09:12;6.00;99.90
5278;DHT22;2662;51.194;6.614;2022-12-07T06:11:40;6.00;99.90
5278;DHT22;2662;51.194;6.614;2022-12-07T06:14:25;6.00;99.90
5278;DHT22;2662;51.194;6.614;2022-12-07T06:16:52;6.00;99.90
5278;DHT22;2662;51.194;6.614;2022-12-07T06:19:19;5.90;99.90
5278;DHT22;2662;51.194;6.614;2022-12-07T06:21:46;6.00;99.90
5278;DHT22;2662;51.194;6.614;2022-12-07T06:24:14;6.10;99.90
5278;DHT22;2662;51.194;6.614;2022-12-07T06:26:41;6.10;99.90
5278;DHT22;2662;51.194;6.614;2022-12-07T06:29:08;6.10;99.90
5278;DHT22;2662;51.194;6.614;2022-12-07T06:31:37;6.10;99.90
5278;DHT22;2662;51.194;6.614;2022-12-07T06:34:06;6.10;99.90
5278;DHT22;2662;51.194;6.614;2022-12-07T06:36:33;6.10;99.90
5278;DHT22;2662;51.194;6.614;2022-12-07T06:38:59;6.10;99.90
5278;DHT22;2662;51.194;6.614;2022-12-07T06:41:26;6.10;99.90
5278;DHT22;2662;51.194;6.614;2022-12-07T06:43:53;6.10;99.90
5278;DHT22;2662;51.194;6.614;2022-12-07T06:46:20;6.10;99.90
5278;DHT22;2662;51.194;6.614;2022-12-07T06:48:48;6.20;99.90
5278;DHT22;2662;51.194;6.614;2022-12-07T06:51:15;6.20;99.90
5278;DHT22;2662;51.194;6.614;2022-12-07T06:53:42;6.20;99.90
5278;DHT22;2662;51.194;6.614;2022-12-07T06:56:09;6.20;99.90
5278;DHT22;2662;51.194;6.614;2022-12-07T06:58:36;6.20;99.90
5278;DHT22;2662;51.194;6.614;2022-12-07T07:01:07;6.20;99.90
5278;DHT22;2662;51.194;6.614;2022-12-07T07:03:34;6.20;99.90
5278;DHT22;2662;51.194;6.614;2022-12-07T07:06:02;6.20;99.90
5278;DHT22;2662;51.194;6.614;2022-12-07T07:08:29;6.20;99.90
5278;DHT22;2662;51.194;6.614;2022-12-07T07:10:56;6.20;99.90
5278;DHT22;2662;51.194;6.614;2022-12-07T07:13:22;6.20;99.90
5278;DHT22;2662;51.194;6.614;2022-12-07T07:15:49;6.20;99.90
5278;DHT22;2662;51.194;6.614;2022-12-07T07:18:16;6.20;99.90
5278;DHT22;2662;51.194;6.614;2022-12-07T07:20:43;6.20;99.90
5278;DHT22;2662;51.194;6.614;2022-12-07T07:23:11;6.20;99.90
5278;DHT22;2662;51.194;6.614;2022-12-07T07:25:38;6.20;99.90
5278;DHT22;2662;51.194;6.614;2022-12-07T07:28:05;6.10;99.90
5278;DHT22;2662;51.194;6.614;2022-12-07T07:30:31;6.10;99.90
5278;DHT22;2662;51.194;6.614;2022-12-07T07:32:59;6.20;99.90
5278;DHT22;2662;51.194;6.614;2022-12-07T07:35:26;6.20;99.90
5278;DHT22;2662;51.194;6.614;2022-12-07T07:37:53;6.20;99.90
5278;DHT22;2662;51.194;6.614;2022-12-07T07:40:22;6.10;99.90
5278;DHT22;2662;51.194;6.614;2022-12-07T07:42:50;6.10;99.90
5278;DHT22;2662;51.194;6.614;2022-12-07T07:45:18;6.00;99.90
5278;DHT22;2662;51.194;6.614;2022-12-07T07:47:45;5.90;99.90
5278;DHT22;2662;51.194;6.614;2022-12-07T07:50:11;5.80;99.90
5278;DHT22;2662;51.194;6.614;2022-12-07T07:52:38;5.80;99.90
5278;DHT22;2662;51.194;6.614;2022-12-07T07:55:06;5.70;99.90
5278;DHT22;2662;51.194;6.614;2022-12-07T07:57:35;5.60;99.90
5278;DHT22;2662;51.194;6.614;2022-12-07T08:00:04;5.60;99.90
5278;DHT22;2662;51.194;6.614;2022-12-07T08:02:31;5.50;99.90
5278;DHT22;2662;51.194;6.614;2022-12-07T08:04:58;5.50;99.90
5278;DHT22;2662;51.194;6.614;2022-12-07T08:07:25;5.40;99.90
5278;DHT22;2662;51.194;6.614;2022-12-07T08:09:53;5.40;99.90
5278;DHT22;2662;51.194;6.614;2022-12-07T08:12:19;5.40;99.90
5278;DHT22;2662;51.194;6.614;2022-12-07T08:14:48;5.40;99.90
5278;DHT22;2662;51.194;6.614;2022-12-07T08:17:14;5.40;99.90
5278;DHT22;2662;51.194;6.614;2022-12-07T08:19:41;5.40;99.90
5278;DHT22;2662;51.194;6.614;2022-12-07T08:22:08;5.50;99.90
5278;DHT22;2662;51.194;6.614;2022-12-07T08:24:35;5.60;99.90
5278;DHT22;2662;51.194;6.614;2022-12-07T08:27:02;5.80;99.90
5278;DHT22;2662;51.194;6.614;2022-12-07T08:29:29;6.00;99.90
5278;DHT22;2662;51.194;6.614;2022-12-07T08:31:57;6.20;99.90
5278;DHT22;2662;51.194;6.614;2022-12-07T08:34:26;6.40;99.90
5278;DHT22;2662;51.194;6.614;2022-12-07T08:36:52;6.50;99.90
5278;DHT22;2662;51.194;6.614;2022-12-07T08:39:19;6.60;99.90
5278;DHT22;2662;51.194;6.614;2022-12-07T08:41:46;6.70;99.90
5278;DHT22;2662;51.194;6.614;2022-12-07T08:44:13;6.80;99.90
5278;DHT22;2662;51.194;6.614;2022-12-07T08:46:42;6.80;99.90
5278;DHT22;2662;51.194;6.614;2022-12-07T08:49:13;6.90;99.90
5278;DHT22;2662;51.194;6.614;2022-12-07T08:51:41;7.00;99.90
5278;DHT22;2662;51.194;6.614;2022-12-07T08:54:10;7.00;99.90
5278;DHT22;2662;51.194;6.614;2022-12-07T08:56:38;7.00;99.90
5278;DHT22;2662;51.194;6.614;2022-12-07T08:59:05;7.10;99.90
5278;DHT22;2662;51.194;6.614;2022-12-07T09:01:34;7.20;99.90
5278;DHT22;2662;51.194;6.614;2022-12-07T09:04:00;7.30;99.90
5278;DHT22;2662;51.194;6.614;2022-12-07T09:06:28;7.50;99.90
5278;DHT22;2662;51.194;6.614;2022-12-07T09:08:58;7.90;99.90
5278;DHT22;2662;51.194;6.614;2022-12-07T09:11:26;8.10;99.90
5278;DHT22;2662;51.194;6.614;2022-12-07T09:13:53;8.20;99.90
5278;DHT22;2662;51.194;6.614;2022-12-07T09:16:19;8.20;99.90
5278;DHT22;2662;51.194;6.614;2022-12-07T09:18:46;8.10;99.90
5278;DHT22;2662;51.194;6.614;2022-12-07T09:21:13;8.00;99.90
5278;DHT22;2662;51.194;6.614;2022-12-07T09:23:42;8.00;99.90
5278;DHT22;2662;51.194;6.614;2022-12-07T09:26:09;7.90;99.90
5278;DHT22;2662;51.194;6.614;2022-12-07T09:28:36;7.90;99.90
5278;DHT22;2662;51.194;6.614;2022-12-07T09:31:03;7.90;99.90
5278;DHT22;2662;51.194;6.614;2022-12-07T09:33:29;8.10;99.90
5278;DHT22;2662;51.194;6.614;2022-12-07T09:35:56;8.30;99.90
5278;DHT22;2662;51.194;6.614;2022-12-07T09:38:23;8.40;99.90
5278;DHT22;2662;51.194;6.614;2022-12-07T09:40:54;8.30;99.90
5278;DHT22;2662;51.194;6.614;2022-12-07T09:43:23;8.20;99.90
5278;DHT22;2662;51.194;6.614;2022-12-07T09:45:52;8.20;99.90
5278;DHT22;2662;51.194;6.614;2022-12-07T09:48:21;8.20;99.90
5278;DHT22;2662;51.194;6.614;2022-12-07T09:50:57;8.40;99.90
5278;DHT22;2662;51.194;6.614;2022-12-07T09:53:27;8.60;99.90
5278;DHT22;2662;51.194;6.614;2022-12-07T09:55:56;8.80;99.90
5278;DHT22;2662;51.194;6.614;2022-12-07T09:58:24;9.00;99.90
5278;DHT22;2662;51.194;6.614;2022-12-07T10:00:54;9.00;99.90
5278;DHT22;2662;51.194;6.614;2022-12-07T10:03:22;8.90;99.90
5278;DHT22;2662;51.194;6.614;2022-12-07T10:05:50;8.80;99.90
5278;DHT22;2662;51.194;6.614;2022-12-07T10:08:18;8.80;99.90
5278;DHT22;2662;51.194;6.614;2022-12-07T10:10:46;8.80;99.90
5278;DHT22;2662;51.194;6.614;2022-12-07T10:13:20;8.70;99.90
5278;DHT22;2662;51.194;6.614;2022-12-07T10:15:50;8.60;99.90
5278;DHT22;2662;51.194;6.614;2022-12-07T10:18:26;8.50;99.90
5278;DHT22;2662;51.194;6.614;2022-12-07T10:21:08;8.40;99.90
5278;DHT22;2662;51.194;6.614;2022-12-07T10:23:37;8.40;99.90
5278;DHT22;2662;51.194;6.614;2022-12-07T10:26:20;8.50;99.90
5278;DHT22;2662;51.194;6.614;2022-12-07T10:28:49;8.60;99.90
5278;DHT22;2662;51.194;6.614;2022-12-07T10:31:18;8.50;99.90
5278;DHT22;2662;51.194;6.614;2022-12-07T10:33:50;8.40;99.90
5278;DHT22;2662;51.194;6.614;2022-12-07T10:36:21;8.30;99.90
5278;DHT22;2662;51.194;6.614;2022-12-07T10:38:51;8.10;99.90
5278;DHT22;2662;51.194;6.614;2022-12-07T10:41:18;8.10;99.90
5278;DHT22;2662;51.194;6.614;2022-12-07T10:43:52;8.00;99.90
5278;DHT22;2662;51.194;6.614;2022-12-07T10:46:40;8.10;99.90
5278;DHT22;2662;51.194;6.614;2022-12-07T10:49:36;8.10;99.90
5278;DHT22;2662;51.194;6.614;2022-12-07T10:52:16;8.00;99.90
5278;DHT22;2662;51.194;6.614;2022-12-07T10:54:51;7.90;99.90
5278;DHT22;2662;51.194;6.614;2022-12-07T10:57:34;7.90;99.90
5278;DHT22;2662;51.194;6.614;2022-12-07T11:00:19;8.10;99.90
5278;DHT22;2662;51.194;6.614;2022-12-07T11:03:06;8.30;99.90
5278;DHT22;2662;51.194;6.614;2022-12-07T11:05:43;8.50;99.90
5278;DHT22;2662;51.194;6.614;2022-12-07T11:08:19;8.70;99.90
5278;DHT22;2662;51.194;6.614;2022-12-07T11:10:51;8.90;99.90
5278;DHT22;2662;51.194;6.614;2022-12-07T11:13:27;8.90;99.90
5278;DHT22;2662;51.194;6.614;2022-12-07T11:16:12;9.00;99.90
5278;DHT22;2662;51.194;6.614;2022-12-07T11:18:48;9.10;99.90
5278;DHT22;2662;51.194;6.614;2022-12-07T11:21:23;9.10;99.90
5278;DHT22;2662;51.194;6.614;2022-12-07T11:23:59;9.10;99.90
5278;DHT22;2662;51.194;6.614;2022-12-07T11:26:39;9.00;99.90
5278;DHT22;2662;51.194;6.614;2022-12-07T11:29:23;8.90;99.90
5278;DHT22;2662;51.194;6.614;2022-12-07T11:32:01;8.90;99.90
5278;DHT22;2662;51.194;6.614;2022-12-07T11:34:37;8.80;99.90
5278;DHT22;2662;51.194;6.614;2022-12-07T11:37:09;8.80;99.90
5278;DHT22;2662;51.194;6.614;2022-12-07T11:39:42;8.70;99.90
5278;DHT22;2662;51.194;6.614;2022-12-07T11:42:14;8.80;99.90
5278;DHT22;2662;51.194;6.614;2022-12-07T11:44:48;8.80;99.90
5278;DHT22;2662;51.194;6.614;2022-12-07T11:47:25;8.80;99.90
5278;DHT22;2662;51.194;6.614;2022-12-07T11:49:56;8.80;99.90
5278;DHT22;2662;51.194;6.614;2022-12-07T11:52:32;8.80;99.90
5278;DHT22;2662;51.194;6.614;2022-12-07T11:55:16;8.80;99.90
5278;DHT22;2662;51.194;6.614;2022-12-07T11:57:48;9.00;99.90
5278;DHT22;2662;51.194;6.614;2022-12-07T12:00:18;8.90;99.90
5278;DHT22;2662;51.194;6.614;2022-12-07T12:02:51;8.90;99.90
5278;DHT22;2662;51.194;6.614;2022-12-07T12:05:21;8.80;99.90
5278;DHT22;2662;51.194;6.614;2022-12-07T12:07:52;8.80;99.90
5278;DHT22;2662;51.194;6.614;2022-12-07T12:10:29;8.80;99.90
5278;DHT22;2662;51.194;6.614;2022-12-07T12:13:19;8.80;99.90
5278;DHT22;2662;51.194;6.614;2022-12-07T12:16:00;8.90;99.90
5278;DHT22;2662;51.194;6.614;2022-12-07T12:21:22;9.00;99.90
5278;DHT22;2662;51.194;6.614;2022-12-07T12:23:56;9.00;99.90
5278;DHT22;2662;51.194;6.614;2022-12-07T12:26:27;9.10;99.90
5278;DHT22;2662;51.194;6.614;2022-12-07T12:28:57;9.10;99.90
5278;DHT22;2662;51.194;6.614;2022-12-07T12:31:34;9.20;99.90
5278;DHT22;2662;51.194;6.614;2022-12-07T12:36:55;9.10;99.90
5278;DHT22;2662;51.194;6.614;2022-12-07T12:39:21;9.10;99.90
5278;DHT22;2662;51.194;6.614;2022-12-07T12:41:54;9.10;99.90
5278;DHT22;2662;51.194;6.614;2022-12-07T12:47:43;9.20;99.90
5278;DHT22;2662;51.194;6.614;2022-12-07T12:50:21;9.10;99.90
5278;DHT22;2662;51.194;6.614;2022-12-07T12:53:05;9.10;99.90
5278;DHT22;2662;51.194;6.614;2022-12-07T12:55:59;9.00;99.90
5278;DHT22;2662;51.194;6.614;2022-12-07T12:58:38;9.00;99.90
5278;DHT22;2662;51.194;6.614;2022-12-07T13:04:39;9.00;99.90
5278;DHT22;2662;51.194;6.614;2022-12-07T13:07:13;8.80;99.90
5278;DHT22;2662;51.194;6.614;2022-12-07T13:09:59;8.80;99.90
5278;DHT22;2662;51.194;6.614;2022-12-07T13:12:27;8.80;99.90
5278;DHT22;2662;51.194;6.614;2022-12-07T13:14:57;8.80;99.90
5278;DHT22;2662;51.194;6.614;2022-12-07T13:17:58;8.70;99.90
5278;DHT22;2662;51.194;6.614;2022-12-07T13:20:44;8.80;99.90
5278;DHT22;2662;51.194;6.614;2022-12-07T13:23:16;8.80;99.90
5278;DHT22;2662;51.194;6.614;2022-12-07T13:25:49;8.80;99.90
5278;DHT22;2662;51.194;6.614;2022-12-07T13:28:18;8.80;99.90
5278;DHT22;2662;51.194;6.614;2022-12-07T13:31:03;8.80;99.90
5278;DHT22;2662;51.194;6.614;2022-12-07T13:33:30;8.80;99.90
5278;DHT22;2662;51.194;6.614;2022-12-07T13:36:00;8.70;99.90
5278;DHT22;2662;51.194;6.614;2022-12-07T13:38:30;8.70;99.90
5278;DHT22;2662;51.194;6.614;2022-12-07T13:41:11;8.70;99.90
5278;DHT22;2662;51.194;6.614;2022-12-07T13:43:48;8.70;99.90
5278;DHT22;2662;51.194;6.614;2022-12-07T13:46:15;8.60;99.90
5278;DHT22;2662;51.194;6.614;2022-12-07T13:48:45;8.60;99.90
5278;DHT22;2662;51.194;6.614;2022-12-07T13:51:21;8.50;99.90
5278;DHT22;2662;51.194;6.614;2022-12-07T13:53:51;8.50;99.90
5278;DHT22;2662;51.194;6.614;2022-12-07T13:56:21;8.40;99.90
5278;DHT22;2662;51.194;6.614;2022-12-07T13:58:48;8.40;99.90
5278;DHT22;2662;51.194;6.614;2022-12-07T14:01:15;8.30;99.90
5278;DHT22;2662;51.194;6.614;2022-12-07T14:03:42;8.40;99.90
5278;DHT22;2662;51.194;6.614;2022-12-07T14:06:19;8.50;99.90
5278;DHT22;2662;51.194;6.614;2022-12-07T14:08:46;8.50;99.90
5278;DHT22;2662;51.194;6.614;2022-12-07T14:11:17;8.50;99.90
5278;DHT22;2662;51.194;6.614;2022-12-07T14:13:56;8.60;99.90
5278;DHT22;2662;51.194;6.614;2022-12-07T14:16:27;8.70;99.90
5278;DHT22;2662;51.194;6.614;2022-12-07T14:18:55;8.70;99.90
5278;DHT22;2662;51.194;6.614;2022-12-07T14:21:24;8.70;99.90
5278;DHT22;2662;51.194;6.614;2022-12-07T14:24:24;8.60;99.90
5278;DHT22;2662;51.194;6.614;2022-12-07T14:26:53;8.50;99.90
5278;DHT22;2662;51.194;6.614;2022-12-07T14:29:30;8.50;99.90
5278;DHT22;2662;51.194;6.614;2022-12-07T14:31:59;8.40;99.90
5278;DHT22;2662;51.194;6.614;2022-12-07T14:34:35;8.30;99.90
5278;DHT22;2662;51.194;6.614;2022-12-07T14:37:02;8.20;99.90
5278;DHT22;2662;51.194;6.614;2022-12-07T14:39:29;8.10;99.90
5278;DHT22;2662;51.194;6.614;2022-12-07T14:41:57;8.10;99.90
5278;DHT22;2662;51.194;6.614;2022-12-07T14:44:23;8.00;99.90
5278;DHT22;2662;51.194;6.614;2022-12-07T14:46:50;8.00;99.90
5278;DHT22;2662;51.194;6.614;2022-12-07T14:49:18;7.90;99.90
5278;DHT22;2662;51.194;6.614;2022-12-07T14:51:46;7.80;99.90
5278;DHT22;2662;51.194;6.614;2022-12-07T14:54:15;7.80;99.90
5278;DHT22;2662;51.194;6.614;2022-12-07T14:56:43;7.80;99.90
5278;DHT22;2662;51.194;6.614;2022-12-07T14:59:12;7.80;99.90
5278;DHT22;2662;51.194;6.614;2022-12-07T15:01:39;7.80;99.90
5278;DHT22;2662;51.194;6.614;2022-12-07T15:04:05;7.80;99.90
5278;DHT22;2662;51.194;6.614;2022-12-07T15:06:33;7.90;99.90
5278;DHT22;2662;51.194;6.614;2022-12-07T15:09:00;7.90;99.90
5278;DHT22;2662;51.194;6.614;2022-12-07T15:11:26;7.90;99.90
5278;DHT22;2662;51.194;6.614;2022-12-07T15:13:53;7.90;99.90
5278;DHT22;2662;51.194;6.614;2022-12-07T15:16:40;7.80;99.90
5278;DHT22;2662;51.194;6.614;2022-12-07T15:19:11;7.70;99.90
5278;DHT22;2662;51.194;6.614;2022-12-07T15:21:39;7.50;99.90
5278;DHT22;2662;51.194;6.614;2022-12-07T15:24:07;7.40;99.90
5278;DHT22;2662;51.194;6.614;2022-12-07T15:26:34;7.30;99.90
5278;DHT22;2662;51.194;6.614;2022-12-07T15:29:01;7.20;99.90
5278;DHT22;2662;51.194;6.614;2022-12-07T15:31:28;7.10;99.90
5278;DHT22;2662;51.194;6.614;2022-12-07T15:33:56;7.00;99.90
5278;DHT22;2662;51.194;6.614;2022-12-07T15:36:25;6.90;99.90
5278;DHT22;2662;51.194;6.614;2022-12-07T15:38:53;6.80;99.90
5278;DHT22;2662;51.194;6.614;2022-12-07T15:41:20;6.80;99.90
5278;DHT22;2662;51.194;6.614;2022-12-07T15:43:47;6.70;99.90
5278;DHT22;2662;51.194;6.614;2022-12-07T15:46:31;6.70;99.90
5278;DHT22;2662;51.194;6.614;2022-12-07T15:49:00;6.60;99.90
5278;DHT22;2662;51.194;6.614;2022-12-07T15:51:26;6.60;99.90
5278;DHT22;2662;51.194;6.614;2022-12-07T15:53:53;6.60;99.90
5278;DHT22;2662;51.194;6.614;2022-12-07T15:56:20;6.50;99.90
5278;DHT22;2662;51.194;6.614;2022-12-07T15:58:47;6.50;99.90
5278;DHT22;2662;51.194;6.614;2022-12-07T16:01:16;6.60;99.90
5278;DHT22;2662;51.194;6.614;2022-12-07T16:03:44;6.60;99.90
5278;DHT22;2662;51.194;6.614;2022-12-07T16:06:14;6.60;99.90
5278;DHT22;2662;51.194;6.614;2022-12-07T16:08:42;6.60;99.90
5278;DHT22;2662;51.194;6.614;2022-12-07T16:11:10;6.60;99.90
5278;DHT22;2662;51.194;6.614;2022-12-07T16:13:37;6.70;99.90
5278;DHT22;2662;51.194;6.614;2022-12-07T16:16:05;6.70;99.90
5278;DHT22;2662;51.194;6.614;2022-12-07T16:18:32;6.80;99.90
5278;DHT22;2662;51.194;6.614;2022-12-07T16:21:00;6.80;99.90
5278;DHT22;2662;51.194;6.614;2022-12-07T16:23:28;6.90;99.90
5278;DHT22;2662;51.194;6.614;2022-12-07T16:25:55;6.90;99.90
5278;DHT22;2662;51.194;6.614;2022-12-07T16:28:29;7.00;99.90
5278;DHT22;2662;51.194;6.614;2022-12-07T16:31:00;7.00;99.90
5278;DHT22;2662;51.194;6.614;2022-12-07T16:33:27;7.10;99.90
5278;DHT22;2662;51.194;6.614;2022-12-07T16:35:54;7.10;99.90
5278;DHT22;2662;51.194;6.614;2022-12-07T16:38:20;7.10;99.90
5278;DHT22;2662;51.194;6.614;2022-12-07T16:40:48;7.10;99.90
5278;DHT22;2662;51.194;6.614;2022-12-07T16:43:15;7.10;99.90
5278;DHT22;2662;51.194;6.614;2022-12-07T16:45:42;7.10;99.90
5278;DHT22;2662;51.194;6.614;2022-12-07T16:48:08;7.10;99.90
5278;DHT22;2662;51.194;6.614;2022-12-07T16:50:38;7.10;99.90